sensor_id;sensor_type;location;lat;lon;timestamp;P1;durP1;ratioP1;P2;durP2;ratioP2
57667;SDS011;43499;52.366;12.912;2024-03-02T00:00:43;45.78;;;21.48;;
57667;SDS011;43499;52.366;12.912;2024-03-02T00:01:44;46.83;;;19.85;;
57667;SDS011;43499;52.366;12.912;2024-03-02T00:02:45;49.60;;;20.17;;
57667;SDS011;43499;52.366;12.912;2024-03-02T00:03:46;47.42;;;20.48;;
57667;SDS011;43499;52.366;12.912;2024-03-02T00:04:47;45.88;;;20.33;;
57667;SDS011;43499;52.366;12.912;2024-03-02T00:05:49;51.63;;;20.98;;
57667;SDS011;43499;52.366;12.912;2024-03-02T00:06:52;46.58;;;19.60;;
57667;SDS011;43499;52.366;12.912;2024-03-02T00:07:56;51.00;;;21.63;;
57667;SDS011;43499;52.366;12.912;2024-03-02T00:08:58;44.72;;;19.95;;
57667;SDS011;43499;52.366;12.912;2024-03-02T00:11:01;46.30;;;19.38;;
57667;SDS011;43499;52.366;12.912;2024-03-02T00:12:05;44.72;;;18.98;;
57667;SDS011;43499;52.366;12.912;2024-03-02T00:13:07;59.00;;;21.48;;
57667;SDS011;43499;52.366;12.912;2024-03-02T00:14:09;43.72;;;20.50;;
57667;SDS011;43499;52.366;12.912;2024-03-02T00:15:25;51.95;;;20.45;;
57667;SDS011;43499;52.366;12.912;2024-03-02T00:16:31;52.60;;;20.48;;
57667;SDS011;43499;52.366;12.912;2024-03-02T00:18:34;54.58;;;20.25;;
57667;SDS011;43499;52.366;12.912;2024-03-02T00:19:38;45.50;;;18.60;;
57667;SDS011;43499;52.366;12.912;2024-03-02T00:20:40;44.05;;;19.52;;
57667;SDS011;43499;52.366;12.912;2024-03-02T00:21:41;44.85;;;20.45;;
57667;SDS011;43499;52.366;12.912;2024-03-02T00:22:42;43.97;;;19.92;;
57667;SDS011;43499;52.366;12.912;2024-03-02T00:23:44;48.80;;;21.42;;
57667;SDS011;43499;52.366;12.912;2024-03-02T00:24:45;50.25;;;19.52;;
57667;SDS011;43499;52.366;12.912;2024-03-02T00:25:53;49.80;;;20.30;;
57667;SDS011;43499;52.366;12.912;2024-03-02T00:26:55;49.28;;;22.83;;
57667;SDS011;43499;52.366;12.912;2024-03-02T00:27:56;49.75;;;19.52;;
57667;SDS011;43499;52.366;12.912;2024-03-02T00:28:57;39.95;;;19.58;;
57667;SDS011;43499;52.366;12.912;2024-03-02T00:30:01;51.60;;;20.33;;
57667;SDS011;43499;52.366;12.912;2024-03-02T00:31:26;53.35;;;19.85;;
57667;SDS011;43499;52.366;12.912;2024-03-02T00:32:27;54.72;;;22.60;;
57667;SDS011;43499;52.366;12.912;2024-03-02T00:33:30;51.90;;;23.20;;
57667;SDS011;43499;52.366;12.912;2024-03-02T00:34:33;50.15;;;20.85;;
57667;SDS011;43499;52.366;12.912;2024-03-02T00:35:34;51.47;;;22.05;;
57667;SDS011;43499;52.366;12.912;2024-03-02T00:36:35;58.22;;;21.95;;
57667;SDS011;43499;52.366;12.912;2024-03-02T00:37:36;48.00;;;19.52;;
57667;SDS011;43499;52.366;12.912;2024-03-02T00:38:47;46.60;;;20.58;;
57667;SDS011;43499;52.366;12.912;2024-03-02T00:39:50;50.83;;;21.02;;
57667;SDS011;43499;52.366;12.912;2024-03-02T00:40:51;47.85;;;19.55;;
57667;SDS011;43499;52.366;12.912;2024-03-02T00:41:52;44.78;;;20.17;;
57667;SDS011;43499;52.366;12.912;2024-03-02T00:42:53;49.10;;;20.17;;
57667;SDS011;43499;52.366;12.912;2024-03-02T00:43:56;47.80;;;19.52;;
57667;SDS011;43499;52.366;12.912;2024-03-02T00:45:02;44.45;;;20.73;;
57667;SDS011;43499;52.366;12.912;2024-03-02T00:46:10;49.65;;;21.00;;
57667;SDS011;43499;52.366;12.912;2024-03-02T00:47:12;47.08;;;20.40;;
57667;SDS011;43499;52.366;12.912;2024-03-02T00:48:14;52.30;;;21.23;;
57667;SDS011;43499;52.366;12.912;2024-03-02T00:49:18;50.10;;;21.48;;
57667;SDS011;43499;52.366;12.912;2024-03-02T00:50:22;49.08;;;20.73;;
57667;SDS011;43499;52.366;12.912;2024-03-02T00:51:24;44.60;;;21.35;;
57667;SDS011;43499;52.366;12.912;2024-03-02T00:52:26;48.22;;;20.38;;
57667;SDS011;43499;52.366;12.912;2024-03-02T00:53:27;49.28;;;21.60;;
57667;SDS011;43499;52.366;12.912;2024-03-02T00:54:28;46.50;;;20.25;;
57667;SDS011;43499;52.366;12.912;2024-03-02T00:55:30;46.47;;;20.80;;
57667;SDS011;43499;52.366;12.912;2024-03-02T00:56:31;50.33;;;19.50;;
57667;SDS011;43499;52.366;12.912;2024-03-02T00:57:33;48.38;;;20.50;;
57667;SDS011;43499;52.366;12.912;2024-03-02T00:58:38;48.30;;;20.90;;
57667;SDS011;43499;52.366;12.912;2024-03-02T00:59:40;45.45;;;20.42;;
57667;SDS011;43499;52.366;12.912;2024-03-02T01:00:41;49.20;;;20.90;;
57667;SDS011;43499;52.366;12.912;2024-03-02T01:01:42;48.22;;;21.80;;
57667;SDS011;43499;52.366;12.912;2024-03-02T01:02:43;45.08;;;18.63;;
57667;SDS011;43499;52.366;12.912;2024-03-02T01:03:46;45.20;;;18.05;;
57667;SDS011;43499;52.366;12.912;2024-03-02T01:04:48;48.35;;;21.08;;
57667;SDS011;43499;52.366;12.912;2024-03-02T01:05:49;42.65;;;18.90;;
57667;SDS011;43499;52.366;12.912;2024-03-02T01:06:50;46.95;;;20.48;;
57667;SDS011;43499;52.366;12.912;2024-03-02T01:07:51;45.88;;;19.38;;
57667;SDS011;43499;52.366;12.912;2024-03-02T01:08:52;41.22;;;19.02;;
57667;SDS011;43499;52.366;12.912;2024-03-02T01:09:53;43.03;;;18.90;;
57667;SDS011;43499;52.366;12.912;2024-03-02T01:10:54;46.30;;;19.23;;
57667;SDS011;43499;52.366;12.912;2024-03-02T01:11:55;54.17;;;20.80;;
57667;SDS011;43499;52.366;12.912;2024-03-02T01:12:56;53.72;;;21.77;;
57667;SDS011;43499;52.366;12.912;2024-03-02T01:13:57;50.50;;;20.90;;
57667;SDS011;43499;52.366;12.912;2024-03-02T01:14:58;52.58;;;21.52;;
57667;SDS011;43499;52.366;12.912;2024-03-02T01:15:59;46.38;;;21.02;;
57667;SDS011;43499;52.366;12.912;2024-03-02T01:17:01;47.50;;;20.55;;
57667;SDS011;43499;52.366;12.912;2024-03-02T01:18:05;47.75;;;19.60;;
57667;SDS011;43499;52.366;12.912;2024-03-02T01:19:06;50.53;;;21.55;;
57667;SDS011;43499;52.366;12.912;2024-03-02T01:20:07;48.35;;;21.15;;
57667;SDS011;43499;52.366;12.912;2024-03-02T01:21:10;51.00;;;21.33;;
57667;SDS011;43499;52.366;12.912;2024-03-02T01:22:11;54.05;;;23.15;;
57667;SDS011;43499;52.366;12.912;2024-03-02T01:23:12;51.92;;;22.65;;
57667;SDS011;43499;52.366;12.912;2024-03-02T01:24:13;55.13;;;23.08;;
57667;SDS011;43499;52.366;12.912;2024-03-02T01:25:14;52.42;;;21.92;;
57667;SDS011;43499;52.366;12.912;2024-03-02T01:26:15;55.03;;;22.38;;
57667;SDS011;43499;52.366;12.912;2024-03-02T01:27:16;57.53;;;21.88;;
57667;SDS011;43499;52.366;12.912;2024-03-02T01:28:18;53.75;;;22.83;;
57667;SDS011;43499;52.366;12.912;2024-03-02T01:29:19;51.75;;;22.55;;
57667;SDS011;43499;52.366;12.912;2024-03-02T01:30:21;49.95;;;21.88;;
57667;SDS011;43499;52.366;12.912;2024-03-02T01:31:22;47.15;;;21.75;;
57667;SDS011;43499;52.366;12.912;2024-03-02T01:32:23;54.88;;;22.45;;
57667;SDS011;43499;52.366;12.912;2024-03-02T01:33:24;49.97;;;20.85;;
57667;SDS011;43499;52.366;12.912;2024-03-02T01:34:25;43.55;;;19.65;;
57667;SDS011;43499;52.366;12.912;2024-03-02T01:35:26;49.20;;;20.80;;
57667;SDS011;43499;52.366;12.912;2024-03-02T01:36:27;44.10;;;19.98;;
57667;SDS011;43499;52.366;12.912;2024-03-02T01:37:28;48.33;;;21.52;;
57667;SDS011;43499;52.366;12.912;2024-03-02T01:38:30;52.83;;;20.98;;
57667;SDS011;43499;52.366;12.912;2024-03-02T01:39:32;55.60;;;21.95;;
57667;SDS011;43499;52.366;12.912;2024-03-02T01:40:33;43.08;;;20.25;;
57667;SDS011;43499;52.366;12.912;2024-03-02T01:41:35;45.90;;;21.30;;
57667;SDS011;43499;52.366;12.912;2024-03-02T01:42:36;48.25;;;22.02;;
57667;SDS011;43499;52.366;12.912;2024-03-02T01:43:38;53.90;;;21.90;;
57667;SDS011;43499;52.366;12.912;2024-03-02T01:44:39;51.53;;;22.15;;
57667;SDS011;43499;52.366;12.912;2024-03-02T01:45:41;54.35;;;22.23;;
57667;SDS011;43499;52.366;12.912;2024-03-02T01:46:42;46.20;;;21.70;;
57667;SDS011;43499;52.366;12.912;2024-03-02T01:47:43;53.95;;;22.05;;
57667;SDS011;43499;52.366;12.912;2024-03-02T01:48:44;58.58;;;21.90;;
57667;SDS011;43499;52.366;12.912;2024-03-02T01:49:45;59.70;;;24.27;;
57667;SDS011;43499;52.366;12.912;2024-03-02T01:50:46;55.58;;;22.15;;
57667;SDS011;43499;52.366;12.912;2024-03-02T01:51:47;52.80;;;22.13;;
57667;SDS011;43499;52.366;12.912;2024-03-02T01:52:48;57.47;;;22.20;;
57667;SDS011;43499;52.366;12.912;2024-03-02T01:53:49;49.13;;;21.50;;
57667;SDS011;43499;52.366;12.912;2024-03-02T01:54:50;48.47;;;22.23;;
57667;SDS011;43499;52.366;12.912;2024-03-02T01:55:51;56.30;;;22.13;;
57667;SDS011;43499;52.366;12.912;2024-03-02T01:56:52;49.30;;;21.00;;
57667;SDS011;43499;52.366;12.912;2024-03-02T01:57:53;60.40;;;22.20;;
57667;SDS011;43499;52.366;12.912;2024-03-02T01:58:54;50.60;;;22.45;;
57667;SDS011;43499;52.366;12.912;2024-03-02T01:59:55;50.03;;;21.27;;
57667;SDS011;43499;52.366;12.912;2024-03-02T02:00:58;49.88;;;21.60;;
57667;SDS011;43499;52.366;12.912;2024-03-02T02:01:59;54.53;;;22.75;;
57667;SDS011;43499;52.366;12.912;2024-03-02T02:03:00;48.63;;;20.38;;
57667;SDS011;43499;52.366;12.912;2024-03-02T02:04:01;60.20;;;22.05;;
57667;SDS011;43499;52.366;12.912;2024-03-02T02:05:02;56.05;;;22.38;;
57667;SDS011;43499;52.366;12.912;2024-03-02T02:06:04;48.92;;;20.83;;
57667;SDS011;43499;52.366;12.912;2024-03-02T02:07:05;54.67;;;22.63;;
57667;SDS011;43499;52.366;12.912;2024-03-02T02:08:07;53.25;;;21.63;;
57667;SDS011;43499;52.366;12.912;2024-03-02T02:09:08;50.08;;;21.77;;
57667;SDS011;43499;52.366;12.912;2024-03-02T02:10:09;54.42;;;21.75;;
57667;SDS011;43499;52.366;12.912;2024-03-02T02:11:11;53.13;;;22.80;;
57667;SDS011;43499;52.366;12.912;2024-03-02T02:12:15;49.75;;;20.52;;
57667;SDS011;43499;52.366;12.912;2024-03-02T02:13:17;56.17;;;23.73;;
57667;SDS011;43499;52.366;12.912;2024-03-02T02:14:18;51.65;;;22.10;;
57667;SDS011;43499;52.366;12.912;2024-03-02T02:15:22;60.00;;;22.70;;
57667;SDS011;43499;52.366;12.912;2024-03-02T02:16:24;49.35;;;20.08;;
57667;SDS011;43499;52.366;12.912;2024-03-02T02:17:25;56.08;;;23.83;;
57667;SDS011;43499;52.366;12.912;2024-03-02T02:18:26;54.65;;;22.30;;
57667;SDS011;43499;52.366;12.912;2024-03-02T02:19:28;49.03;;;21.75;;
57667;SDS011;43499;52.366;12.912;2024-03-02T02:20:29;58.83;;;21.77;;
57667;SDS011;43499;52.366;12.912;2024-03-02T02:21:30;54.20;;;22.48;;
57667;SDS011;43499;52.366;12.912;2024-03-02T02:22:31;60.70;;;23.27;;
57667;SDS011;43499;52.366;12.912;2024-03-02T02:23:32;52.70;;;22.02;;
57667;SDS011;43499;52.366;12.912;2024-03-02T02:24:33;55.78;;;22.63;;
57667;SDS011;43499;52.366;12.912;2024-03-02T02:25:35;54.15;;;22.85;;
57667;SDS011;43499;52.366;12.912;2024-03-02T02:26:36;57.42;;;21.92;;
57667;SDS011;43499;52.366;12.912;2024-03-02T02:27:37;49.10;;;21.80;;
57667;SDS011;43499;52.366;12.912;2024-03-02T02:28:38;55.08;;;22.13;;
57667;SDS011;43499;52.366;12.912;2024-03-02T02:29:39;50.83;;;21.98;;
57667;SDS011;43499;52.366;12.912;2024-03-02T02:30:40;56.35;;;24.65;;
57667;SDS011;43499;52.366;12.912;2024-03-02T02:31:41;55.38;;;22.58;;
57667;SDS011;43499;52.366;12.912;2024-03-02T02:32:43;55.72;;;23.63;;
57667;SDS011;43499;52.366;12.912;2024-03-02T02:33:44;55.10;;;22.65;;
57667;SDS011;43499;52.366;12.912;2024-03-02T02:34:45;51.00;;;21.77;;
57667;SDS011;43499;52.366;12.912;2024-03-02T02:35:46;55.72;;;22.77;;
57667;SDS011;43499;52.366;12.912;2024-03-02T02:36:47;52.60;;;23.98;;
57667;SDS011;43499;52.366;12.912;2024-03-02T02:37:48;61.22;;;23.35;;
57667;SDS011;43499;52.366;12.912;2024-03-02T02:38:50;54.17;;;22.33;;
57667;SDS011;43499;52.366;12.912;2024-03-02T02:39:51;58.20;;;24.13;;
57667;SDS011;43499;52.366;12.912;2024-03-02T02:40:52;49.33;;;22.08;;
57667;SDS011;43499;52.366;12.912;2024-03-02T02:41:53;51.83;;;23.75;;
57667;SDS011;43499;52.366;12.912;2024-03-02T02:42:54;55.78;;;22.38;;
57667;SDS011;43499;52.366;12.912;2024-03-02T02:43:55;55.55;;;22.90;;
57667;SDS011;43499;52.366;12.912;2024-03-02T02:44:57;59.67;;;24.10;;
57667;SDS011;43499;52.366;12.912;2024-03-02T02:45:58;56.33;;;22.02;;
57667;SDS011;43499;52.366;12.912;2024-03-02T02:46:59;46.30;;;22.27;;
57667;SDS011;43499;52.366;12.912;2024-03-02T02:48:00;54.03;;;23.08;;
57667;SDS011;43499;52.366;12.912;2024-03-02T02:49:03;59.00;;;24.17;;
57667;SDS011;43499;52.366;12.912;2024-03-02T02:50:04;61.70;;;23.48;;
57667;SDS011;43499;52.366;12.912;2024-03-02T02:51:07;68.03;;;23.67;;
57667;SDS011;43499;52.366;12.912;2024-03-02T02:52:08;58.03;;;23.25;;
57667;SDS011;43499;52.366;12.912;2024-03-02T02:53:09;51.80;;;23.00;;
57667;SDS011;43499;52.366;12.912;2024-03-02T02:54:10;56.58;;;22.67;;
57667;SDS011;43499;52.366;12.912;2024-03-02T02:55:12;57.33;;;23.17;;
57667;SDS011;43499;52.366;12.912;2024-03-02T02:56:14;53.75;;;21.17;;
57667;SDS011;43499;52.366;12.912;2024-03-02T02:57:15;55.72;;;23.42;;
57667;SDS011;43499;52.366;12.912;2024-03-02T02:58:16;56.50;;;22.52;;
57667;SDS011;43499;52.366;12.912;2024-03-02T02:59:17;57.28;;;23.02;;
57667;SDS011;43499;52.366;12.912;2024-03-02T03:00:18;56.03;;;22.50;;
57667;SDS011;43499;52.366;12.912;2024-03-02T03:01:20;56.97;;;22.38;;
57667;SDS011;43499;52.366;12.912;2024-03-02T03:02:21;57.42;;;22.98;;
57667;SDS011;43499;52.366;12.912;2024-03-02T03:03:22;51.60;;;22.52;;
57667;SDS011;43499;52.366;12.912;2024-03-02T03:04:23;52.33;;;21.75;;
57667;SDS011;43499;52.366;12.912;2024-03-02T03:05:25;53.50;;;22.88;;
57667;SDS011;43499;52.366;12.912;2024-03-02T03:06:26;52.92;;;21.85;;
57667;SDS011;43499;52.366;12.912;2024-03-02T03:07:27;56.10;;;22.58;;
57667;SDS011;43499;52.366;12.912;2024-03-02T03:08:28;60.65;;;22.95;;
57667;SDS011;43499;52.366;12.912;2024-03-02T03:09:29;53.85;;;21.17;;
57667;SDS011;43499;52.366;12.912;2024-03-02T03:10:30;49.60;;;21.75;;
57667;SDS011;43499;52.366;12.912;2024-03-02T03:11:31;57.58;;;22.42;;
57667;SDS011;43499;52.366;12.912;2024-03-02T03:12:32;57.65;;;22.23;;
57667;SDS011;43499;52.366;12.912;2024-03-02T03:13:34;52.95;;;21.67;;
57667;SDS011;43499;52.366;12.912;2024-03-02T03:14:35;50.75;;;21.35;;
57667;SDS011;43499;52.366;12.912;2024-03-02T03:15:36;59.72;;;22.48;;
57667;SDS011;43499;52.366;12.912;2024-03-02T03:16:38;56.63;;;23.02;;
57667;SDS011;43499;52.366;12.912;2024-03-02T03:17:39;57.25;;;22.63;;
57667;SDS011;43499;52.366;12.912;2024-03-02T03:18:40;51.15;;;20.05;;
57667;SDS011;43499;52.366;12.912;2024-03-02T03:19:41;51.85;;;21.65;;
57667;SDS011;43499;52.366;12.912;2024-03-02T03:20:42;51.10;;;21.95;;
57667;SDS011;43499;52.366;12.912;2024-03-02T03:21:43;54.85;;;22.63;;
57667;SDS011;43499;52.366;12.912;2024-03-02T03:22:45;50.97;;;20.67;;
57667;SDS011;43499;52.366;12.912;2024-03-02T03:23:46;56.03;;;22.67;;
57667;SDS011;43499;52.366;12.912;2024-03-02T03:24:47;60.65;;;23.67;;
57667;SDS011;43499;52.366;12.912;2024-03-02T03:25:48;47.22;;;20.90;;
57667;SDS011;43499;52.366;12.912;2024-03-02T03:26:50;55.08;;;21.73;;
57667;SDS011;43499;52.366;12.912;2024-03-02T03:27:51;53.88;;;23.38;;
57667;SDS011;43499;52.366;12.912;2024-03-02T03:28:54;56.15;;;22.83;;
57667;SDS011;43499;52.366;12.912;2024-03-02T03:29:55;64.40;;;22.92;;
57667;SDS011;43499;52.366;12.912;2024-03-02T03:30:56;52.28;;;22.88;;
57667;SDS011;43499;52.366;12.912;2024-03-02T03:31:57;55.78;;;22.45;;
57667;SDS011;43499;52.366;12.912;2024-03-02T03:32:58;55.97;;;22.80;;
57667;SDS011;43499;52.366;12.912;2024-03-02T03:33:59;54.45;;;22.85;;
57667;SDS011;43499;52.366;12.912;2024-03-02T03:35:00;59.88;;;23.33;;
57667;SDS011;43499;52.366;12.912;2024-03-02T03:36:02;57.03;;;24.35;;
57667;SDS011;43499;52.366;12.912;2024-03-02T03:37:04;55.47;;;23.00;;
57667;SDS011;43499;52.366;12.912;2024-03-02T03:38:05;53.20;;;23.58;;
57667;SDS011;43499;52.366;12.912;2024-03-02T03:39:06;60.35;;;23.55;;
57667;SDS011;43499;52.366;12.912;2024-03-02T03:40:07;60.00;;;23.85;;
57667;SDS011;43499;52.366;12.912;2024-03-02T03:41:10;58.95;;;24.27;;
57667;SDS011;43499;52.366;12.912;2024-03-02T03:42:11;63.00;;;23.55;;
57667;SDS011;43499;52.366;12.912;2024-03-02T03:43:12;63.75;;;23.70;;
57667;SDS011;43499;52.366;12.912;2024-03-02T03:44:13;53.22;;;22.75;;
57667;SDS011;43499;52.366;12.912;2024-03-02T03:45:14;55.40;;;24.13;;
57667;SDS011;43499;52.366;12.912;2024-03-02T03:46:15;56.83;;;22.30;;
57667;SDS011;43499;52.366;12.912;2024-03-02T03:47:17;55.97;;;22.33;;
57667;SDS011;43499;52.366;12.912;2024-03-02T03:48:18;58.65;;;23.45;;
57667;SDS011;43499;52.366;12.912;2024-03-02T03:49:19;58.97;;;23.98;;
57667;SDS011;43499;52.366;12.912;2024-03-02T03:50:21;63.63;;;25.85;;
57667;SDS011;43499;52.366;12.912;2024-03-02T03:51:22;53.78;;;23.63;;
57667;SDS011;43499;52.366;12.912;2024-03-02T03:52:26;57.15;;;22.80;;
57667;SDS011;43499;52.366;12.912;2024-03-02T03:53:27;49.05;;;22.42;;
57667;SDS011;43499;52.366;12.912;2024-03-02T03:54:28;57.03;;;24.08;;
57667;SDS011;43499;52.366;12.912;2024-03-02T03:55:29;54.15;;;22.83;;
57667;SDS011;43499;52.366;12.912;2024-03-02T03:56:30;54.90;;;23.67;;
57667;SDS011;43499;52.366;12.912;2024-03-02T03:57:31;56.42;;;23.90;;
57667;SDS011;43499;52.366;12.912;2024-03-02T03:58:32;54.95;;;23.63;;
57667;SDS011;43499;52.366;12.912;2024-03-02T03:59:33;59.78;;;23.92;;
57667;SDS011;43499;52.366;12.912;2024-03-02T04:00:34;52.72;;;22.65;;
57667;SDS011;43499;52.366;12.912;2024-03-02T04:01:35;61.67;;;24.45;;
57667;SDS011;43499;52.366;12.912;2024-03-02T04:02:37;55.72;;;23.30;;
57667;SDS011;43499;52.366;12.912;2024-03-02T04:03:38;54.15;;;23.33;;
57667;SDS011;43499;52.366;12.912;2024-03-02T04:04:39;53.85;;;22.52;;
57667;SDS011;43499;52.366;12.912;2024-03-02T04:05:40;56.08;;;22.90;;
57667;SDS011;43499;52.366;12.912;2024-03-02T04:06:42;59.97;;;23.85;;
57667;SDS011;43499;52.366;12.912;2024-03-02T04:07:43;57.05;;;23.33;;
57667;SDS011;43499;52.366;12.912;2024-03-02T04:08:44;52.67;;;24.02;;
57667;SDS011;43499;52.366;12.912;2024-03-02T04:09:45;59.55;;;24.10;;
57667;SDS011;43499;52.366;12.912;2024-03-02T04:10:46;62.25;;;24.60;;
57667;SDS011;43499;52.366;12.912;2024-03-02T04:11:47;55.38;;;23.80;;
57667;SDS011;43499;52.366;12.912;2024-03-02T04:12:49;55.67;;;22.30;;
57667;SDS011;43499;52.366;12.912;2024-03-02T04:13:50;60.15;;;24.00;;
57667;SDS011;43499;52.366;12.912;2024-03-02T04:14:51;58.08;;;24.30;;
57667;SDS011;43499;52.366;12.912;2024-03-02T04:15:52;57.17;;;23.23;;
57667;SDS011;43499;52.366;12.912;2024-03-02T04:16:53;62.20;;;26.08;;
57667;SDS011;43499;52.366;12.912;2024-03-02T04:17:54;57.65;;;24.75;;
57667;SDS011;43499;52.366;12.912;2024-03-02T04:18:55;60.42;;;24.00;;
57667;SDS011;43499;52.366;12.912;2024-03-02T04:19:56;61.75;;;23.40;;
57667;SDS011;43499;52.366;12.912;2024-03-02T04:20:58;57.33;;;24.58;;
57667;SDS011;43499;52.366;12.912;2024-03-02T04:22:00;62.03;;;24.17;;
57667;SDS011;43499;52.366;12.912;2024-03-02T04:23:01;66.32;;;24.13;;
57667;SDS011;43499;52.366;12.912;2024-03-02T04:24:02;52.88;;;23.90;;
57667;SDS011;43499;52.366;12.912;2024-03-02T04:25:03;57.40;;;24.27;;
57667;SDS011;43499;52.366;12.912;2024-03-02T04:26:05;62.65;;;25.83;;
57667;SDS011;43499;52.366;12.912;2024-03-02T04:28:07;53.70;;;21.30;;
57667;SDS011;43499;52.366;12.912;2024-03-02T04:29:08;62.88;;;24.60;;
57667;SDS011;43499;52.366;12.912;2024-03-02T04:30:10;62.42;;;23.88;;
57667;SDS011;43499;52.366;12.912;2024-03-02T04:31:11;64.57;;;24.85;;
57667;SDS011;43499;52.366;12.912;2024-03-02T04:32:12;67.75;;;25.38;;
57667;SDS011;43499;52.366;12.912;2024-03-02T04:33:13;63.83;;;24.27;;
57667;SDS011;43499;52.366;12.912;2024-03-02T04:34:14;69.65;;;27.17;;
57667;SDS011;43499;52.366;12.912;2024-03-02T04:35:15;61.90;;;24.88;;
57667;SDS011;43499;52.366;12.912;2024-03-02T04:36:16;61.70;;;23.40;;
57667;SDS011;43499;52.366;12.912;2024-03-02T04:37:17;56.45;;;24.23;;
57667;SDS011;43499;52.366;12.912;2024-03-02T04:38:18;59.33;;;23.23;;
57667;SDS011;43499;52.366;12.912;2024-03-02T04:39:20;67.72;;;25.00;;
57667;SDS011;43499;52.366;12.912;2024-03-02T04:40:21;58.05;;;24.83;;
57667;SDS011;43499;52.366;12.912;2024-03-02T04:41:22;58.30;;;24.75;;
57667;SDS011;43499;52.366;12.912;2024-03-02T04:42:23;67.22;;;25.33;;
57667;SDS011;43499;52.366;12.912;2024-03-02T04:43:25;53.97;;;22.40;;
57667;SDS011;43499;52.366;12.912;2024-03-02T04:44:26;63.42;;;25.73;;
57667;SDS011;43499;52.366;12.912;2024-03-02T04:45:27;65.32;;;26.00;;
57667;SDS011;43499;52.366;12.912;2024-03-02T04:46:28;66.07;;;26.20;;
57667;SDS011;43499;52.366;12.912;2024-03-02T04:47:29;57.80;;;23.58;;
57667;SDS011;43499;52.366;12.912;2024-03-02T04:48:30;57.65;;;25.45;;
57667;SDS011;43499;52.366;12.912;2024-03-02T04:49:31;63.08;;;25.20;;
57667;SDS011;43499;52.366;12.912;2024-03-02T04:50:32;59.97;;;24.55;;
57667;SDS011;43499;52.366;12.912;2024-03-02T04:51:33;61.92;;;25.52;;
57667;SDS011;43499;52.366;12.912;2024-03-02T04:52:34;66.10;;;25.95;;
57667;SDS011;43499;52.366;12.912;2024-03-02T04:53:35;60.95;;;25.80;;
57667;SDS011;43499;52.366;12.912;2024-03-02T04:54:37;56.78;;;24.38;;
57667;SDS011;43499;52.366;12.912;2024-03-02T04:55:57;60.25;;;25.20;;
57667;SDS011;43499;52.366;12.912;2024-03-02T04:57:18;53.83;;;23.70;;
57667;SDS011;43499;52.366;12.912;2024-03-02T04:58:19;56.88;;;23.88;;
57667;SDS011;43499;52.366;12.912;2024-03-02T04:59:21;63.42;;;24.15;;
57667;SDS011;43499;52.366;12.912;2024-03-02T05:00:22;61.83;;;25.90;;
57667;SDS011;43499;52.366;12.912;2024-03-02T05:01:23;63.83;;;24.92;;
57667;SDS011;43499;52.366;12.912;2024-03-02T05:02:24;66.68;;;25.60;;
57667;SDS011;43499;52.366;12.912;2024-03-02T05:03:25;60.80;;;25.60;;
57667;SDS011;43499;52.366;12.912;2024-03-02T05:04:26;59.67;;;24.30;;
57667;SDS011;43499;52.366;12.912;2024-03-02T05:05:27;64.05;;;25.23;;
57667;SDS011;43499;52.366;12.912;2024-03-02T05:06:28;59.55;;;24.75;;
57667;SDS011;43499;52.366;12.912;2024-03-02T05:07:29;66.90;;;24.90;;
57667;SDS011;43499;52.366;12.912;2024-03-02T05:08:30;63.58;;;25.85;;
57667;SDS011;43499;52.366;12.912;2024-03-02T05:09:31;64.55;;;24.98;;
57667;SDS011;43499;52.366;12.912;2024-03-02T05:10:32;61.03;;;25.52;;
57667;SDS011;43499;52.366;12.912;2024-03-02T05:11:33;60.22;;;25.55;;
57667;SDS011;43499;52.366;12.912;2024-03-02T05:12:38;63.08;;;24.65;;
57667;SDS011;43499;52.366;12.912;2024-03-02T05:13:45;61.03;;;24.88;;
57667;SDS011;43499;52.366;12.912;2024-03-02T05:14:46;62.85;;;24.77;;
57667;SDS011;43499;52.366;12.912;2024-03-02T05:15:47;69.50;;;25.65;;
57667;SDS011;43499;52.366;12.912;2024-03-02T05:16:48;65.80;;;28.05;;
57667;SDS011;43499;52.366;12.912;2024-03-02T05:17:49;62.95;;;26.63;;
57667;SDS011;43499;52.366;12.912;2024-03-02T05:18:50;76.65;;;27.75;;
57667;SDS011;43499;52.366;12.912;2024-03-02T05:19:51;69.00;;;26.58;;
57667;SDS011;43499;52.366;12.912;2024-03-02T05:20:52;60.92;;;25.65;;
57667;SDS011;43499;52.366;12.912;2024-03-02T05:21:53;63.25;;;25.50;;
57667;SDS011;43499;52.366;12.912;2024-03-02T05:22:54;67.18;;;25.33;;
57667;SDS011;43499;52.366;12.912;2024-03-02T05:23:55;64.45;;;26.27;;
57667;SDS011;43499;52.366;12.912;2024-03-02T05:24:56;61.65;;;24.65;;
57667;SDS011;43499;52.366;12.912;2024-03-02T05:25:57;65.50;;;25.67;;
57667;SDS011;43499;52.366;12.912;2024-03-02T05:26:58;66.78;;;25.95;;
57667;SDS011;43499;52.366;12.912;2024-03-02T05:28:00;61.53;;;25.15;;
57667;SDS011;43499;52.366;12.912;2024-03-02T05:29:01;64.90;;;26.17;;
57667;SDS011;43499;52.366;12.912;2024-03-02T05:30:03;69.47;;;25.70;;
57667;SDS011;43499;52.366;12.912;2024-03-02T05:31:09;60.03;;;24.10;;
57667;SDS011;43499;52.366;12.912;2024-03-02T05:32:11;70.40;;;25.05;;
57667;SDS011;43499;52.366;12.912;2024-03-02T05:33:12;62.83;;;25.80;;
57667;SDS011;43499;52.366;12.912;2024-03-02T05:34:13;61.20;;;26.20;;
57667;SDS011;43499;52.366;12.912;2024-03-02T05:35:14;58.97;;;23.25;;
57667;SDS011;43499;52.366;12.912;2024-03-02T05:36:15;63.45;;;25.90;;
57667;SDS011;43499;52.366;12.912;2024-03-02T05:37:16;60.63;;;26.73;;
57667;SDS011;43499;52.366;12.912;2024-03-02T05:38:17;65.03;;;23.58;;
57667;SDS011;43499;52.366;12.912;2024-03-02T05:39:18;68.57;;;26.30;;
57667;SDS011;43499;52.366;12.912;2024-03-02T05:40:20;63.95;;;25.45;;
57667;SDS011;43499;52.366;12.912;2024-03-02T05:41:21;57.22;;;23.83;;
57667;SDS011;43499;52.366;12.912;2024-03-02T05:42:22;60.65;;;24.90;;
57667;SDS011;43499;52.366;12.912;2024-03-02T05:43:23;55.65;;;23.90;;
57667;SDS011;43499;52.366;12.912;2024-03-02T05:44:24;57.33;;;25.60;;
57667;SDS011;43499;52.366;12.912;2024-03-02T05:45:25;62.67;;;26.08;;
57667;SDS011;43499;52.366;12.912;2024-03-02T05:46:26;60.63;;;23.17;;
57667;SDS011;43499;52.366;12.912;2024-03-02T05:47:28;61.13;;;25.33;;
57667;SDS011;43499;52.366;12.912;2024-03-02T05:48:29;61.47;;;25.13;;
57667;SDS011;43499;52.366;12.912;2024-03-02T05:49:30;56.28;;;25.75;;
57667;SDS011;43499;52.366;12.912;2024-03-02T05:50:31;62.03;;;25.88;;
57667;SDS011;43499;52.366;12.912;2024-03-02T05:51:32;64.28;;;25.20;;
57667;SDS011;43499;52.366;12.912;2024-03-02T05:52:33;66.78;;;25.52;;
57667;SDS011;43499;52.366;12.912;2024-03-02T05:53:34;62.13;;;23.15;;
57667;SDS011;43499;52.366;12.912;2024-03-02T05:54:35;60.80;;;23.08;;
57667;SDS011;43499;52.366;12.912;2024-03-02T05:55:36;57.00;;;23.85;;
57667;SDS011;43499;52.366;12.912;2024-03-02T05:56:37;61.35;;;23.83;;
57667;SDS011;43499;52.366;12.912;2024-03-02T05:57:38;58.63;;;25.00;;
57667;SDS011;43499;52.366;12.912;2024-03-02T05:58:48;56.40;;;24.88;;